sensor_id;sensor_type;location;lat;lon;timestamp;pressure;altitude;pressure_sealevel;temperature;humidity
47104;BME280;32853;52.164;5.400;2022-07-29T00:00:08;101735.31;;;17.74;100.00
47104;BME280;32853;52.164;5.400;2022-07-29T00:02:34;101706.75;;;17.47;100.00
47104;BME280;32853;52.164;5.400;2022-07-29T00:04:59;101763.16;;;17.96;100.00
47104;BME280;32853;52.164;5.400;2022-07-29T00:07:28;101762.63;;;17.74;100.00
47104;BME280;32853;52.164;5.400;2022-07-29T00:09:53;101754.69;;;17.90;100.00
47104;BME280;32853;52.164;5.400;2022-07-29T00:12:20;101762.56;;;18.07;100.00
47104;BME280;32853;52.164;5.400;2022-07-29T00:14:46;101714.16;;;17.74;100.00
47104;BME280;32853;52.164;5.400;2022-07-29T00:17:12;101731.00;;;17.55;100.00
47104;BME280;32853;52.164;5.400;2022-07-29T00:19:37;101730.50;;;17.64;100.00
47104;BME280;32853;52.164;5.400;2022-07-29T00:22:03;101766.44;;;17.84;100.00
47104;BME280;32853;52.164;5.400;2022-07-29T00:24:28;101681.66;;;17.38;100.00
47104;BME280;32853;52.164;5.400;2022-07-29T00:26:53;101754.09;;;17.85;100.00
47104;BME280;32853;52.164;5.400;2022-07-29T00:29:20;101744.09;;;17.90;100.00
47104;BME280;32853;52.164;5.400;2022-07-29T00:31:46;101717.81;;;17.71;100.00
47104;BME280;32853;52.164;5.400;2022-07-29T00:34:11;101734.53;;;17.87;100.00
47104;BME280;32853;52.164;5.400;2022-07-29T00:36:56;101730.19;;;17.70;100.00
47104;BME280;32853;52.164;5.400;2022-07-29T00:39:21;101675.59;;;17.21;100.00
47104;BME280;32853;52.164;5.400;2022-07-29T00:41:46;101683.13;;;17.44;100.00
47104;BME280;32853;52.164;5.400;2022-07-29T00:44:12;101689.41;;;17.26;100.00
47104;BME280;32853;52.164;5.400;2022-07-29T00:46:37;101632.69;;;17.00;100.00
47104;BME280;32853;52.164;5.400;2022-07-29T00:49:03;101723.94;;;17.56;100.00
47104;BME280;32853;52.164;5.400;2022-07-29T00:51:28;101723.19;;;17.69;100.00
47104;BME280;32853;52.164;5.400;2022-07-29T00:53:55;101662.75;;;17.46;100.00
47104;BME280;32853;52.164;5.400;2022-07-29T00:56:21;101656.06;;;17.23;100.00
47104;BME280;32853;52.164;5.400;2022-07-29T00:58:47;101655.75;;;17.29;100.00
47104;BME280;32853;52.164;5.400;2022-07-29T01:01:13;101653.94;;;17.14;100.00
47104;BME280;32853;52.164;5.400;2022-07-29T01:03:38;101675.34;;;17.25;100.00
47104;BME280;32853;52.164;5.400;2022-07-29T01:06:04;101508.47;;;16.35;100.00
47104;BME280;32853;52.164;5.400;2022-07-29T01:08:31;101717.25;;;17.49;100.00
47104;BME280;32853;52.164;5.400;2022-07-29T01:10:58;101715.03;;;17.57;100.00
47104;BME280;32853;52.164;5.400;2022-07-29T01:13:24;101551.25;;;16.42;100.00
47104;BME280;32853;52.164;5.400;2022-07-29T01:15:55;101713.25;;;17.41;100.00
47104;BME280;32853;52.164;5.400;2022-07-29T01:18:34;101704.88;;;17.49;100.00
47104;BME280;32853;52.164;5.400;2022-07-29T01:21:27;101697.31;;;17.43;100.00
47104;BME280;32853;52.164;5.400;2022-07-29T01:24:20;101705.72;;;17.34;100.00
47104;BME280;32853;52.164;5.400;2022-07-29T01:26:57;101700.75;;;17.28;100.00
47104;BME280;32853;52.164;5.400;2022-07-29T01:29:32;101698.72;;;17.33;100.00
47104;BME280;32853;52.164;5.400;2022-07-29T01:34:43;101701.28;;;17.34;100.00
47104;BME280;32853;52.164;5.400;2022-07-29T01:39:47;101543.44;;;16.56;100.00
47104;BME280;32853;52.164;5.400;2022-07-29T01:42:23;101695.69;;;17.40;100.00
47104;BME280;32853;52.164;5.400;2022-07-29T01:45:08;101697.72;;;17.35;100.00
47104;BME280;32853;52.164;5.400;2022-07-29T01:48:00;101691.38;;;17.38;100.00
47104;BME280;32853;52.164;5.400;2022-07-29T01:50:33;101669.69;;;17.16;100.00
47104;BME280;32853;52.164;5.400;2022-07-29T01:53:02;101575.97;;;16.56;100.00
47104;BME280;32853;52.164;5.400;2022-07-29T01:55:34;101578.94;;;16.68;100.00
47104;BME280;32853;52.164;5.400;2022-07-29T01:58:00;101706.75;;;17.47;100.00
47104;BME280;32853;52.164;5.400;2022-07-29T02:00:30;101641.91;;;17.08;100.00
47104;BME280;32853;52.164;5.400;2022-07-29T02:02:58;101658.72;;;17.07;100.00
47104;BME280;32853;52.164;5.400;2022-07-29T02:05:27;101697.34;;;17.26;100.00
47104;BME280;32853;52.164;5.400;2022-07-29T02:07:55;101676.38;;;17.23;100.00
47104;BME280;32853;52.164;5.400;2022-07-29T02:10:25;101617.34;;;16.73;100.00
47104;BME280;32853;52.164;5.400;2022-07-29T02:12:52;101713.97;;;17.28;100.00
47104;BME280;32853;52.164;5.400;2022-07-29T02:15:19;101614.84;;;16.88;100.00
47104;BME280;32853;52.164;5.400;2022-07-29T02:17:53;101706.41;;;17.37;100.00
47104;BME280;32853;52.164;5.400;2022-07-29T02:20:22;101681.31;;;17.29;100.00
47104;BME280;32853;52.164;5.400;2022-07-29T02:22:49;101703.53;;;17.42;100.00
47104;BME280;32853;52.164;5.400;2022-07-29T02:25:22;101656.66;;;17.12;100.00
47104;BME280;32853;52.164;5.400;2022-07-29T02:27:50;101690.81;;;17.33;100.00
47104;BME280;32853;52.164;5.400;2022-07-29T02:30:17;101655.94;;;16.93;100.00
47104;BME280;32853;52.164;5.400;2022-07-29T02:32:46;101643.38;;;16.81;100.00
47104;BME280;32853;52.164;5.400;2022-07-29T02:35:14;101576.81;;;16.41;100.00
47104;BME280;32853;52.164;5.400;2022-07-29T02:37:41;101683.25;;;17.09;100.00
47104;BME280;32853;52.164;5.400;2022-07-29T02:40:10;101660.63;;;16.88;100.00
47104;BME280;32853;52.164;5.400;2022-07-29T02:42:37;101638.94;;;16.81;100.00
47104;BME280;32853;52.164;5.400;2022-07-29T02:45:04;101492.72;;;16.01;100.00
47104;BME280;32853;52.164;5.400;2022-07-29T02:47:40;101619.16;;;16.73;100.00
47104;BME280;32853;52.164;5.400;2022-07-29T02:50:15;101668.16;;;17.11;100.00
47104;BME280;32853;52.164;5.400;2022-07-29T02:52:48;101567.13;;;16.58;100.00
47104;BME280;32853;52.164;5.400;2022-07-29T02:55:59;101654.56;;;17.19;100.00
47104;BME280;32853;52.164;5.400;2022-07-29T02:58:42;101575.63;;;16.63;100.00
47104;BME280;32853;52.164;5.400;2022-07-29T03:01:16;101619.88;;;16.76;100.00
47104;BME280;32853;52.164;5.400;2022-07-29T03:03:46;101639.56;;;16.87;100.00
47104;BME280;32853;52.164;5.400;2022-07-29T03:06:13;101680.44;;;17.12;100.00
47104;BME280;32853;52.164;5.400;2022-07-29T03:08:40;101605.56;;;16.63;100.00
47104;BME280;32853;52.164;5.400;2022-07-29T03:11:14;101679.44;;;17.15;100.00
47104;BME280;32853;52.164;5.400;2022-07-29T03:13:41;101684.22;;;17.08;100.00
47104;BME280;32853;52.164;5.400;2022-07-29T03:16:07;101673.94;;;17.02;100.00
47104;BME280;32853;52.164;5.400;2022-07-29T03:18:33;101664.13;;;17.04;100.00
47104;BME280;32853;52.164;5.400;2022-07-29T03:20:59;101604.69;;;16.63;100.00
47104;BME280;32853;52.164;5.400;2022-07-29T03:23:24;101677.81;;;17.12;100.00
47104;BME280;32853;52.164;5.400;2022-07-29T03:25:53;101627.25;;;16.70;100.00
47104;BME280;32853;52.164;5.400;2022-07-29T03:28:21;101686.91;;;17.07;100.00
47104;BME280;32853;52.164;5.400;2022-07-29T03:30:47;101636.47;;;16.78;100.00
47104;BME280;32853;52.164;5.400;2022-07-29T03:33:12;101557.69;;;16.36;100.00
47104;BME280;32853;52.164;5.400;2022-07-29T03:35:38;101630.00;;;16.84;100.00
47104;BME280;32853;52.164;5.400;2022-07-29T03:38:03;101548.31;;;16.31;100.00
47104;BME280;32853;52.164;5.400;2022-07-29T03:40:49;101625.69;;;16.66;100.00
47104;BME280;32853;52.164;5.400;2022-07-29T03:43:17;101665.19;;;16.84;100.00
47104;BME280;32853;52.164;5.400;2022-07-29T03:45:47;101639.50;;;17.04;100.00
47104;BME280;32853;52.164;5.400;2022-07-29T03:48:15;101654.91;;;16.96;100.00
47104;BME280;32853;52.164;5.400;2022-07-29T03:50:41;101605.63;;;16.79;100.00
47104;BME280;32853;52.164;5.400;2022-07-29T03:53:07;101608.00;;;16.68;100.00
47104;BME280;32853;52.164;5.400;2022-07-29T03:55:41;101617.09;;;16.45;100.00
47104;BME280;32853;52.164;5.400;2022-07-29T03:58:08;101649.50;;;16.81;100.00
47104;BME280;32853;52.164;5.400;2022-07-29T04:00:35;101647.66;;;16.66;100.00
47104;BME280;32853;52.164;5.400;2022-07-29T04:03:02;101642.78;;;16.76;100.00
47104;BME280;32853;52.164;5.400;2022-07-29T04:05:28;101575.50;;;16.15;100.00
47104;BME280;32853;52.164;5.400;2022-07-29T04:07:53;101618.31;;;16.38;100.00
47104;BME280;32853;52.164;5.400;2022-07-29T04:10:19;101601.13;;;16.31;100.00
47104;BME280;32853;52.164;5.400;2022-07-29T04:12:44;101650.78;;;16.74;100.00
47104;BME280;32853;52.164;5.400;2022-07-29T04:15:10;101450.50;;;15.49;100.00
47104;BME280;32853;52.164;5.400;2022-07-29T04:17:36;101640.75;;;16.64;100.00
47104;BME280;32853;52.164;5.400;2022-07-29T04:20:03;101577.59;;;16.26;100.00
47104;BME280;32853;52.164;5.400;2022-07-29T04:22:29;101653.75;;;16.68;100.00
47104;BME280;32853;52.164;5.400;2022-07-29T04:24:54;101638.81;;;16.50;100.00
47104;BME280;32853;52.164;5.400;2022-07-29T04:27:20;101654.28;;;16.58;100.00
47104;BME280;32853;52.164;5.400;2022-07-29T04:29:45;101658.31;;;16.65;100.00
47104;BME280;32853;52.164;5.400;2022-07-29T04:32:10;101645.31;;;16.60;100.00
47104;BME280;32853;52.164;5.400;2022-07-29T04:34:36;101642.31;;;16.50;100.00
47104;BME280;32853;52.164;5.400;2022-07-29T04:37:01;101600.81;;;16.19;100.00
47104;BME280;32853;52.164;5.400;2022-07-29T04:39:26;101588.69;;;16.15;100.00
47104;BME280;32853;52.164;5.400;2022-07-29T04:41:52;101568.00;;;16.08;100.00
47104;BME280;32853;52.164;5.400;2022-07-29T04:44:17;101615.00;;;16.34;100.00
47104;BME280;32853;52.164;5.400;2022-07-29T04:46:43;101573.19;;;16.09;100.00
47104;BME280;32853;52.164;5.400;2022-07-29T04:49:08;101661.09;;;16.62;100.00
47104;BME280;32853;52.164;5.400;2022-07-29T04:51:34;101580.25;;;15.91;100.00
47104;BME280;32853;52.164;5.400;2022-07-29T04:53:59;101659.63;;;16.56;100.00
47104;BME280;32853;52.164;5.400;2022-07-29T04:56:25;101440.09;;;15.28;100.00
47104;BME280;32853;52.164;5.400;2022-07-29T04:58:51;101525.75;;;15.73;100.00
47104;BME280;32853;52.164;5.400;2022-07-29T05:01:17;101656.31;;;16.70;100.00
47104;BME280;32853;52.164;5.400;2022-07-29T05:03:42;101654.72;;;16.66;100.00
47104;BME280;32853;52.164;5.400;2022-07-29T05:06:08;101547.56;;;15.94;100.00
47104;BME280;32853;52.164;5.400;2022-07-29T05:08:34;101660.03;;;16.48;100.00
47104;BME280;32853;52.164;5.400;2022-07-29T05:10:59;101645.50;;;16.57;100.00
47104;BME280;32853;52.164;5.400;2022-07-29T05:13:25;101439.09;;;15.14;100.00
47104;BME280;32853;52.164;5.400;2022-07-29T05:15:57;101652.50;;;16.41;100.00
47104;BME280;32853;52.164;5.400;2022-07-29T05:18:27;101609.72;;;16.17;100.00
47104;BME280;32853;52.164;5.400;2022-07-29T05:20:52;101656.53;;;16.48;100.00
47104;BME280;32853;52.164;5.400;2022-07-29T05:23:17;101658.44;;;16.62;100.00
47104;BME280;32853;52.164;5.400;2022-07-29T05:25:43;101660.16;;;16.63;100.00
47104;BME280;32853;52.164;5.400;2022-07-29T05:28:08;101650.72;;;16.41;100.00
47104;BME280;32853;52.164;5.400;2022-07-29T05:30:33;101651.19;;;16.32;100.00
47104;BME280;32853;52.164;5.400;2022-07-29T05:32:59;101595.84;;;16.13;100.00
47104;BME280;32853;52.164;5.400;2022-07-29T05:35:24;101541.59;;;15.90;100.00
47104;BME280;32853;52.164;5.400;2022-07-29T05:37:49;101592.50;;;16.10;100.00
47104;BME280;32853;52.164;5.400;2022-07-29T05:40:15;101460.09;;;15.15;100.00
47104;BME280;32853;52.164;5.400;2022-07-29T05:42:40;101547.41;;;15.80;100.00
47104;BME280;32853;52.164;5.400;2022-07-29T05:45:06;101649.06;;;16.39;100.00
47104;BME280;32853;52.164;5.400;2022-07-29T05:47:31;101662.03;;;16.61;100.00
47104;BME280;32853;52.164;5.400;2022-07-29T05:49:57;101613.97;;;16.54;100.00
47104;BME280;32853;52.164;5.400;2022-07-29T05:52:22;101667.50;;;16.75;100.00
47104;BME280;32853;52.164;5.400;2022-07-29T05:54:48;101657.97;;;16.88;100.00
47104;BME280;32853;52.164;5.400;2022-07-29T05:57:18;101665.94;;;17.04;100.00
47104;BME280;32853;52.164;5.400;2022-07-29T05:59:50;101666.69;;;16.73;100.00
47104;BME280;32853;52.164;5.400;2022-07-29T06:02:15;101677.34;;;17.04;100.00
47104;BME280;32853;52.164;5.400;2022-07-29T06:04:41;101642.91;;;16.90;100.00
47104;BME280;32853;52.164;5.400;2022-07-29T06:07:06;101583.06;;;16.56;100.00
47104;BME280;32853;52.164;5.400;2022-07-29T06:09:32;101562.06;;;16.20;100.00
47104;BME280;32853;52.164;5.400;2022-07-29T06:11:58;101458.28;;;15.69;100.00
47104;BME280;32853;52.164;5.400;2022-07-29T06:14:24;101652.47;;;16.58;100.00
47104;BME280;32853;52.164;5.400;2022-07-29T06:16:49;101560.69;;;16.13;100.00
47104;BME280;32853;52.164;5.400;2022-07-29T06:19:15;101607.31;;;16.63;100.00
47104;BME280;32853;52.164;5.400;2022-07-29T06:21:44;101682.59;;;17.22;100.00
47104;BME280;32853;52.164;5.400;2022-07-29T06:24:10;101677.75;;;17.30;100.00
47104;BME280;32853;52.164;5.400;2022-07-29T06:26:37;101662.63;;;17.16;100.00
47104;BME280;32853;52.164;5.400;2022-07-29T06:29:03;101595.16;;;16.77;100.00
47104;BME280;32853;52.164;5.400;2022-07-29T06:31:28;101469.19;;;15.96;100.00
47104;BME280;32853;52.164;5.400;2022-07-29T06:33:54;101573.50;;;16.53;100.00
47104;BME280;32853;52.164;5.400;2022-07-29T06:36:19;101726.22;;;17.46;100.00
47104;BME280;32853;52.164;5.400;2022-07-29T06:38:45;101639.50;;;16.88;100.00
47104;BME280;32853;52.164;5.400;2022-07-29T06:41:10;101679.91;;;17.06;100.00
47104;BME280;32853;52.164;5.400;2022-07-29T06:43:39;101575.63;;;16.63;100.00
47104;BME280;32853;52.164;5.400;2022-07-29T06:46:11;101617.53;;;16.70;100.00
47104;BME280;32853;52.164;5.400;2022-07-29T06:48:38;101714.88;;;17.44;100.00
47104;BME280;32853;52.164;5.400;2022-07-29T06:51:05;101644.13;;;17.00;100.00
47104;BME280;32853;52.164;5.400;2022-07-29T06:53:31;101633.19;;;16.91;100.00
47104;BME280;32853;52.164;5.400;2022-07-29T06:56:02;101701.03;;;17.39;100.00
47104;BME280;32853;52.164;5.400;2022-07-29T06:58:28;101577.97;;;16.86;100.00
47104;BME280;32853;52.164;5.400;2022-07-29T07:00:55;101645.75;;;17.34;100.00
47104;BME280;32853;52.164;5.400;2022-07-29T07:03:21;101592.25;;;16.82;100.00
47104;BME280;32853;52.164;5.400;2022-07-29T07:05:47;101652.66;;;17.21;100.00
47104;BME280;32853;52.164;5.400;2022-07-29T07:08:13;101726.06;;;17.65;100.00
47104;BME280;32853;52.164;5.400;2022-07-29T07:10:40;101456.53;;;16.36;100.00
47104;BME280;32853;52.164;5.400;2022-07-29T07:13:07;101675.16;;;17.77;100.00
47104;BME280;32853;52.164;5.400;2022-07-29T07:15:32;101646.38;;;17.87;100.00
47104;BME280;32853;52.164;5.400;2022-07-29T07:17:58;101714.56;;;18.27;100.00
47104;BME280;32853;52.164;5.400;2022-07-29T07:20:24;101705.56;;;18.46;100.00
47104;BME280;32853;52.164;5.400;2022-07-29T07:22:50;101715.56;;;18.71;100.00
47104;BME280;32853;52.164;5.400;2022-07-29T07:25:15;101589.03;;;18.02;100.00
47104;BME280;32853;52.164;5.400;2022-07-29T07:27:43;101593.47;;;18.45;100.00
47104;BME280;32853;52.164;5.400;2022-07-29T07:30:08;101659.97;;;18.85;100.00
47104;BME280;32853;52.164;5.400;2022-07-29T07:32:34;101721.50;;;19.19;100.00
47104;BME280;32853;52.164;5.400;2022-07-29T07:35:00;101667.03;;;19.13;100.00
47104;BME280;32853;52.164;5.400;2022-07-29T07:37:25;101572.56;;;18.55;100.00
47104;BME280;32853;52.164;5.400;2022-07-29T07:39:52;101632.22;;;18.91;100.00
47104;BME280;32853;52.164;5.400;2022-07-29T07:42:19;101639.13;;;19.07;100.00
47104;BME280;32853;52.164;5.400;2022-07-29T07:44:44;101568.72;;;18.75;100.00
47104;BME280;32853;52.164;5.400;2022-07-29T07:47:11;101696.28;;;19.26;100.00
47104;BME280;32853;52.164;5.400;2022-07-29T07:49:36;101546.44;;;18.35;100.00
47104;BME280;32853;52.164;5.400;2022-07-29T07:52:02;101686.72;;;19.37;100.00
47104;BME280;32853;52.164;5.400;2022-07-29T07:54:27;101558.34;;;18.27;100.00
47104;BME280;32853;52.164;5.400;2022-07-29T07:56:52;101519.69;;;18.25;100.00
47104;BME280;32853;52.164;5.400;2022-07-29T07:59:18;101663.69;;;19.52;100.00
47104;BME280;32853;52.164;5.400;2022-07-29T08:01:45;101511.78;;;18.95;100.00
47104;BME280;32853;52.164;5.400;2022-07-29T08:04:10;101537.00;;;19.29;100.00
47104;BME280;32853;52.164;5.400;2022-07-29T08:06:36;101688.97;;;19.99;100.00
47104;BME280;32853;52.164;5.400;2022-07-29T08:09:03;101550.00;;;19.19;100.00
47104;BME280;32853;52.164;5.400;2022-07-29T08:11:31;101564.38;;;19.29;100.00
47104;BME280;32853;52.164;5.400;2022-07-29T08:13:56;101570.53;;;19.57;100.00
47104;BME280;32853;52.164;5.400;2022-07-29T08:16:22;101664.50;;;20.21;100.00
47104;BME280;32853;52.164;5.400;2022-07-29T08:18:47;101647.69;;;20.08;100.00
47104;BME280;32853;52.164;5.400;2022-07-29T08:21:14;101528.41;;;19.38;100.00
47104;BME280;32853;52.164;5.400;2022-07-29T08:24:56;101530.63;;;19.58;100.00
47104;BME280;32853;52.164;5.400;2022-07-29T08:27:26;101675.88;;;20.36;100.00
47104;BME280;32853;52.164;5.400;2022-07-29T08:29:53;101682.88;;;20.37;100.00
47104;BME280;32853;52.164;5.400;2022-07-29T08:32:26;101571.44;;;19.83;100.00
47104;BME280;32853;52.164;5.400;2022-07-29T08:34:53;101635.28;;;20.21;100.00
47104;BME280;32853;52.164;5.400;2022-07-29T08:37:18;101633.69;;;20.31;100.00
47104;BME280;32853;52.164;5.400;2022-07-29T08:39:44;101701.13;;;20.94;100.00
47104;BME280;32853;52.164;5.400;2022-07-29T08:42:10;101641.59;;;20.58;100.00
47104;BME280;32853;52.164;5.400;2022-07-29T08:44:36;101570.44;;;20.11;100.00
47104;BME280;32853;52.164;5.400;2022-07-29T08:47:01;101597.06;;;20.49;100.00
47104;BME280;32853;52.164;5.400;2022-07-29T08:49:27;101607.59;;;20.63;100.00
47104;BME280;32853;52.164;5.400;2022-07-29T08:51:53;101569.44;;;20.51;100.00
47104;BME280;32853;52.164;5.400;2022-07-29T08:54:19;101638.50;;;20.89;100.00
47104;BME280;32853;52.164;5.400;2022-07-29T08:56:51;101693.69;;;21.37;100.00
47104;BME280;32853;52.164;5.400;2022-07-29T08:59:19;101499.38;;;20.27;100.00
47104;BME280;32853;52.164;5.400;2022-07-29T09:01:46;101542.63;;;20.67;100.00
47104;BME280;32853;52.164;5.400;2022-07-29T09:04:12;101712.31;;;22.10;97.94
47104;BME280;32853;52.164;5.400;2022-07-29T09:06:42;101718.25;;;21.53;99.64
47104;BME280;32853;52.164;5.400;2022-07-29T09:09:12;101637.38;;;21.67;100.00
47104;BME280;32853;52.164;5.400;2022-07-29T09:11:39;101526.63;;;20.80;92.89
47104;BME280;32853;52.164;5.400;2022-07-29T09:14:04;101624.97;;;21.79;96.80
47104;BME280;32853;52.164;5.400;2022-07-29T09:16:53;101694.47;;;22.35;92.80
47104;BME280;32853;52.164;5.400;2022-07-29T09:19:24;101659.00;;;21.86;88.69
47104;BME280;32853;52.164;5.400;2022-07-29T09:21:50;101496.38;;;21.30;88.85
47104;BME280;32853;52.164;5.400;2022-07-29T09:26:59;101621.28;;;22.27;87.80
47104;BME280;32853;52.164;5.400;2022-07-29T09:29:25;101673.53;;;22.41;87.49
47104;BME280;32853;52.164;5.400;2022-07-29T09:31:54;101508.50;;;21.34;87.02
47104;BME280;32853;52.164;5.400;2022-07-29T09:34:27;101663.94;;;22.39;86.42
47104;BME280;32853;52.164;5.400;2022-07-29T09:36:54;101690.78;;;22.71;86.30
47104;BME280;32853;52.164;5.400;2022-07-29T09:39:35;101554.03;;;22.13;86.65
47104;BME280;32853;52.164;5.400;2022-07-29T09:42:04;101653.44;;;22.48;83.63
47104;BME280;32853;52.164;5.400;2022-07-29T09:44:44;101615.59;;;22.32;82.95
47104;BME280;32853;52.164;5.400;2022-07-29T09:47:10;101575.97;;;22.27;83.22
47104;BME280;32853;52.164;5.400;2022-07-29T09:49:58;101672.56;;;23.00;85.68
47104;BME280;32853;52.164;5.400;2022-07-29T09:52:28;101654.84;;;22.87;80.24
47104;BME280;32853;52.164;5.400;2022-07-29T09:55:07;101648.66;;;22.98;77.47
47104;BME280;32853;52.164;5.400;2022-07-29T09:57:33;101675.94;;;23.24;77.26
47104;BME280;32853;52.164;5.400;2022-07-29T10:00:03;101620.16;;;22.76;77.24
47104;BME280;32853;52.164;5.400;2022-07-29T10:02:35;101623.53;;;22.78;80.01
47104;BME280;32853;52.164;5.400;2022-07-29T10:05:04;101588.16;;;22.76;81.14
47104;BME280;32853;52.164;5.400;2022-07-29T10:07:48;101686.72;;;22.89;81.27
47104;BME280;32853;52.164;5.400;2022-07-29T10:10:27;101678.63;;;23.02;82.19
47104;BME280;32853;52.164;5.400;2022-07-29T10:12:55;101519.44;;;21.89;87.31
47104;BME280;32853;52.164;5.400;2022-07-29T10:15:23;101687.53;;;22.78;84.33
47104;BME280;32853;52.164;5.400;2022-07-29T10:17:52;101686.16;;;23.19;86.96
47104;BME280;32853;52.164;5.400;2022-07-29T10:20:18;101609.63;;;22.86;83.98
47104;BME280;32853;52.164;5.400;2022-07-29T10:22:44;101654.84;;;22.87;85.38
47104;BME280;32853;52.164;5.400;2022-07-29T10:25:12;101677.75;;;22.90;87.11
47104;BME280;32853;52.164;5.400;2022-07-29T10:27:37;101645.47;;;22.71;88.10
47104;BME280;32853;52.164;5.400;2022-07-29T10:30:06;101670.97;;;23.08;87.73
47104;BME280;32853;52.164;5.400;2022-07-29T10:32:56;101686.97;;;23.31;88.53
47104;BME280;32853;52.164;5.400;2022-07-29T10:35:54;101684.28;;;23.42;81.51
47104;BME280;32853;52.164;5.400;2022-07-29T10:43:55;101633.81;;;23.39;78.02
47104;BME280;32853;52.164;5.400;2022-07-29T10:46:22;101654.59;;;23.24;78.33
47104;BME280;32853;52.164;5.400;2022-07-29T10:49:13;101690.72;;;23.73;82.40
47104;BME280;32853;52.164;5.400;2022-07-29T10:51:59;101647.50;;;23.45;80.11
47104;BME280;32853;52.164;5.400;2022-07-29T11:05:08;101630.34;;;24.02;76.51
47104;BME280;32853;52.164;5.400;2022-07-29T11:07:35;101610.63;;;23.83;77.19
47104;BME280;32853;52.164;5.400;2022-07-29T11:10:19;101583.50;;;23.98;79.22
47104;BME280;32853;52.164;5.400;2022-07-29T11:12:46;101627.78;;;24.33;78.81
47104;BME280;32853;52.164;5.400;2022-07-29T11:15:14;101572.34;;;24.14;75.08
47104;BME280;32853;52.164;5.400;2022-07-29T11:20:37;101680.69;;;25.02;74.79
47104;BME280;32853;52.164;5.400;2022-07-29T11:23:22;101673.56;;;24.91;76.12
47104;BME280;32853;52.164;5.400;2022-07-29T11:26:16;101674.66;;;25.40;74.40
47104;BME280;32853;52.164;5.400;2022-07-29T11:29:02;101673.38;;;25.44;74.17
47104;BME280;32853;52.164;5.400;2022-07-29T11:45:07;101672.63;;;25.32;71.62
47104;BME280;32853;52.164;5.400;2022-07-29T11:47:48;101635.41;;;25.19;71.28
47104;BME280;32853;52.164;5.400;2022-07-29T11:50:17;101511.19;;;24.91;71.38
47104;BME280;32853;52.164;5.400;2022-07-29T11:52:45;101595.72;;;25.44;68.91
47104;BME280;32853;52.164;5.400;2022-07-29T11:55:16;101602.72;;;25.26;68.78
47104;BME280;32853;52.164;5.400;2022-07-29T11:58:01;101680.25;;;25.87;70.45
47104;BME280;32853;52.164;5.400;2022-07-29T12:00:39;101574.44;;;25.52;68.06
47104;BME280;32853;52.164;5.400;2022-07-29T12:03:26;101659.63;;;26.26;64.97
47104;BME280;32853;52.164;5.400;2022-07-29T12:05:54;101481.13;;;25.28;65.59
47104;BME280;32853;52.164;5.400;2022-07-29T12:08:21;101493.69;;;24.78;68.89
47104;BME280;32853;52.164;5.400;2022-07-29T12:10:53;101672.47;;;26.03;70.45
47104;BME280;32853;52.164;5.400;2022-07-29T12:13:19;101670.50;;;25.86;69.76
47104;BME280;32853;52.164;5.400;2022-07-29T12:15:56;101657.81;;;26.07;69.32
47104;BME280;32853;52.164;5.400;2022-07-29T12:18:25;101637.06;;;26.19;68.78
47104;BME280;32853;52.164;5.400;2022-07-29T12:20:59;101641.28;;;26.02;66.31
47104;BME280;32853;52.164;5.400;2022-07-29T12:23:25;101654.25;;;26.26;66.75
47104;BME280;32853;52.164;5.400;2022-07-29T12:25:50;101665.25;;;26.32;66.72
47104;BME280;32853;52.164;5.400;2022-07-29T12:28:16;101659.84;;;26.71;64.88
47104;BME280;32853;52.164;5.400;2022-07-29T12:30:48;101652.03;;;26.87;65.45
47104;BME280;32853;52.164;5.400;2022-07-29T12:33:25;101676.34;;;26.76;64.22
47104;BME280;32853;52.164;5.400;2022-07-29T12:35:57;101680.28;;;26.82;65.97
47104;BME280;32853;52.164;5.400;2022-07-29T12:38:24;101652.69;;;26.62;65.92
47104;BME280;32853;52.164;5.400;2022-07-29T12:40:52;101646.50;;;26.52;64.90
47104;BME280;32853;52.164;5.400;2022-07-29T12:43:20;101612.25;;;26.73;65.83
47104;BME280;32853;52.164;5.400;2022-07-29T12:45:48;101606.81;;;26.36;66.12
47104;BME280;32853;52.164;5.400;2022-07-29T12:48:43;101670.88;;;26.58;66.92
47104;BME280;32853;52.164;5.400;2022-07-29T12:54:46;101668.50;;;26.26;66.45
47104;BME280;32853;52.164;5.400;2022-07-29T12:57:47;101665.72;;;26.09;69.25
47104;BME280;32853;52.164;5.400;2022-07-29T13:00:50;101662.50;;;26.71;68.77
47104;BME280;32853;52.164;5.400;2022-07-29T13:17:17;101660.50;;;27.47;69.98
47104;BME280;32853;52.164;5.400;2022-07-29T13:31:02;101669.09;;;27.06;63.90
47104;BME280;32853;52.164;5.400;2022-07-29T13:33:41;101506.53;;;26.19;63.64
47104;BME280;32853;52.164;5.400;2022-07-29T13:36:10;101488.25;;;26.05;64.29
47104;BME280;32853;52.164;5.400;2022-07-29T13:38:35;101470.50;;;26.31;62.63
47104;BME280;32853;52.164;5.400;2022-07-29T13:41:38;101658.19;;;27.80;62.78
47104;BME280;32853;52.164;5.400;2022-07-29T13:44:27;101460.50;;;26.79;62.74
47104;BME280;32853;52.164;5.400;2022-07-29T13:46:59;101498.38;;;26.48;62.70
47104;BME280;32853;52.164;5.400;2022-07-29T14:11:10;101568.91;;;26.96;64.10
47104;BME280;32853;52.164;5.400;2022-07-29T14:31:09;101568.78;;;25.94;65.44
47104;BME280;32853;52.164;5.400;2022-07-29T14:33:34;101539.28;;;26.13;64.52
47104;BME280;32853;52.164;5.400;2022-07-29T14:36:04;101510.56;;;25.76;63.23
47104;BME280;32853;52.164;5.400;2022-07-29T14:38:34;101657.03;;;27.10;61.74
47104;BME280;32853;52.164;5.400;2022-07-29T14:41:00;101659.03;;;27.08;60.31
47104;BME280;32853;52.164;5.400;2022-07-29T14:43:47;101656.44;;;27.43;60.14